sensor_id;sensor_type;location;lat;lon;timestamp;temperature;humidity
52435;DHT22;38354;52.892;6.148;2023-10-09T03:00:56;14.50;99.90
52435;DHT22;38354;52.892;6.148;2023-10-09T03:03:21;14.60;99.90
52435;DHT22;38354;52.892;6.148;2023-10-09T03:05:47;14.60;99.90
52435;DHT22;38354;52.892;6.148;2023-10-09T03:08:15;14.60;99.90
52435;DHT22;38354;52.892;6.148;2023-10-09T03:10:42;14.60;99.90
52435;DHT22;38354;52.892;6.148;2023-10-09T03:13:07;14.60;99.90
52435;DHT22;38354;52.892;6.148;2023-10-09T03:15:33;14.70;99.90
52435;DHT22;38354;52.892;6.148;2023-10-09T03:18:02;14.70;99.90
52435;DHT22;38354;52.892;6.148;2023-10-09T03:20:28;14.70;99.90
52435;DHT22;38354;52.892;6.148;2023-10-09T03:22:55;14.70;99.90
52435;DHT22;38354;52.892;6.148;2023-10-09T03:25:21;14.70;99.90
52435;DHT22;38354;52.892;6.148;2023-10-09T03:27:50;14.70;99.90
52435;DHT22;38354;52.892;6.148;2023-10-09T03:30:17;14.70;99.90
52435;DHT22;38354;52.892;6.148;2023-10-09T03:32:49;14.80;99.90
52435;DHT22;38354;52.892;6.148;2023-10-09T03:35:18;14.80;99.90
52435;DHT22;38354;52.892;6.148;2023-10-09T03:37:49;14.80;99.90
52435;DHT22;38354;52.892;6.148;2023-10-09T03:40:15;14.90;99.90
52435;DHT22;38354;52.892;6.148;2023-10-09T03:42:44;14.90;99.90
52435;DHT22;38354;52.892;6.148;2023-10-09T03:45:09;15.00;99.90
52435;DHT22;38354;52.892;6.148;2023-10-09T03:47:43;15.00;99.90
52435;DHT22;38354;52.892;6.148;2023-10-09T03:50:13;15.10;99.90
52435;DHT22;38354;52.892;6.148;2023-10-09T03:53:03;15.10;99.90
52435;DHT22;38354;52.892;6.148;2023-10-09T03:55:34;15.10;99.90
52435;DHT22;38354;52.892;6.148;2023-10-09T03:57:59;15.20;99.90
52435;DHT22;38354;52.892;6.148;2023-10-09T04:00:27;15.10;99.90
52435;DHT22;38354;52.892;6.148;2023-10-09T04:02:57;15.10;99.90
52435;DHT22;38354;52.892;6.148;2023-10-09T04:05:23;15.10;99.90
52435;DHT22;38354;52.892;6.148;2023-10-09T04:07:49;15.10;99.90
52435;DHT22;38354;52.892;6.148;2023-10-09T04:10:16;15.20;99.90
52435;DHT22;38354;52.892;6.148;2023-10-09T04:13:00;15.20;99.90
52435;DHT22;38354;52.892;6.148;2023-10-09T04:15:28;15.20;99.90
52435;DHT22;38354;52.892;6.148;2023-10-09T04:17:56;15.20;99.90
52435;DHT22;38354;52.892;6.148;2023-10-09T04:20:22;15.30;99.90
52435;DHT22;38354;52.892;6.148;2023-10-09T04:22:47;15.30;99.90
52435;DHT22;38354;52.892;6.148;2023-10-09T04:25:19;15.30;99.90
52435;DHT22;38354;52.892;6.148;2023-10-09T04:27:55;15.30;99.90
52435;DHT22;38354;52.892;6.148;2023-10-09T04:30:39;15.30;99.90
52435;DHT22;38354;52.892;6.148;2023-10-09T04:33:21;15.30;99.90
52435;DHT22;38354;52.892;6.148;2023-10-09T04:36:02;15.40;99.90
52435;DHT22;38354;52.892;6.148;2023-10-09T04:38:49;15.30;99.90
52435;DHT22;38354;52.892;6.148;2023-10-09T04:41:32;15.40;99.90
52435;DHT22;38354;52.892;6.148;2023-10-09T04:43:58;15.40;99.90
52435;DHT22;38354;52.892;6.148;2023-10-09T04:46:43;15.40;99.90
52435;DHT22;38354;52.892;6.148;2023-10-09T04:49:31;15.40;99.90
52435;DHT22;38354;52.892;6.148;2023-10-09T04:52:11;15.40;99.90
52435;DHT22;38354;52.892;6.148;2023-10-09T04:54:45;15.50;99.90
52435;DHT22;38354;52.892;6.148;2023-10-09T04:57:29;15.50;99.90
52435;DHT22;38354;52.892;6.148;2023-10-09T04:59:55;15.50;99.90
52435;DHT22;38354;52.892;6.148;2023-10-09T05:02:24;15.50;99.90
52435;DHT22;38354;52.892;6.148;2023-10-09T05:04:49;15.50;99.90
52435;DHT22;38354;52.892;6.148;2023-10-09T05:07:35;15.50;99.90
52435;DHT22;38354;52.892;6.148;2023-10-09T05:10:36;15.60;99.90
52435;DHT22;38354;52.892;6.148;2023-10-09T05:13:19;15.60;99.90
52435;DHT22;38354;52.892;6.148;2023-10-09T05:16:12;15.60;99.90
52435;DHT22;38354;52.892;6.148;2023-10-09T05:18:58;15.60;99.90
52435;DHT22;38354;52.892;6.148;2023-10-09T05:21:34;15.60;99.90
52435;DHT22;38354;52.892;6.148;2023-10-09T05:24:01;15.60;99.90
52435;DHT22;38354;52.892;6.148;2023-10-09T05:31:46;15.70;99.90
52435;DHT22;38354;52.892;6.148;2023-10-09T05:34:22;15.70;99.90
52435;DHT22;38354;52.892;6.148;2023-10-09T05:36:49;15.70;99.90
52435;DHT22;38354;52.892;6.148;2023-10-09T05:39:14;15.80;99.90
52435;DHT22;38354;52.892;6.148;2023-10-09T05:42:03;15.80;99.90
52435;DHT22;38354;52.892;6.148;2023-10-09T05:44:35;15.80;99.90
52435;DHT22;38354;52.892;6.148;2023-10-09T05:47:19;15.80;99.90
52435;DHT22;38354;52.892;6.148;2023-10-09T05:49:57;15.90;99.90
52435;DHT22;38354;52.892;6.148;2023-10-09T05:52:52;15.90;99.90
52435;DHT22;38354;52.892;6.148;2023-10-09T05:55:18;15.90;99.90
52435;DHT22;38354;52.892;6.148;2023-10-09T05:57:49;15.90;99.90
52435;DHT22;38354;52.892;6.148;2023-10-09T06:00:24;15.90;99.90
52435;DHT22;38354;52.892;6.148;2023-10-09T06:03:09;15.90;99.90
52435;DHT22;38354;52.892;6.148;2023-10-09T06:05:47;15.90;99.90
52435;DHT22;38354;52.892;6.148;2023-10-09T06:08:22;16.00;99.90
52435;DHT22;38354;52.892;6.148;2023-10-09T06:10:52;16.00;99.90
52435;DHT22;38354;52.892;6.148;2023-10-09T06:13:50;16.00;99.90
52435;DHT22;38354;52.892;6.148;2023-10-09T06:16:28;16.10;99.90
52435;DHT22;38354;52.892;6.148;2023-10-09T06:19:09;16.10;99.90
52435;DHT22;38354;52.892;6.148;2023-10-09T06:21:38;16.10;99.90
52435;DHT22;38354;52.892;6.148;2023-10-09T06:24:19;16.10;99.90
52435;DHT22;38354;52.892;6.148;2023-10-09T06:26:45;16.10;99.90
52435;DHT22;38354;52.892;6.148;2023-10-09T06:29:36;16.10;99.90
52435;DHT22;38354;52.892;6.148;2023-10-09T06:32:16;16.10;99.90
52435;DHT22;38354;52.892;6.148;2023-10-09T06:35:00;16.10;99.90
52435;DHT22;38354;52.892;6.148;2023-10-09T06:37:50;16.10;99.90
52435;DHT22;38354;52.892;6.148;2023-10-09T06:43:02;16.10;99.90
52435;DHT22;38354;52.892;6.148;2023-10-09T06:45:38;16.10;99.90
52435;DHT22;38354;52.892;6.148;2023-10-09T06:48:12;16.10;99.90
52435;DHT22;38354;52.892;6.148;2023-10-09T06:50:57;16.10;99.90
52435;DHT22;38354;52.892;6.148;2023-10-09T06:53:45;16.10;99.90
52435;DHT22;38354;52.892;6.148;2023-10-09T06:56:20;16.20;99.90
52435;DHT22;38354;52.892;6.148;2023-10-09T06:58:55;16.20;99.90
52435;DHT22;38354;52.892;6.148;2023-10-09T07:01:23;16.20;99.90
52435;DHT22;38354;52.892;6.148;2023-10-09T07:03:58;16.20;99.90
52435;DHT22;38354;52.892;6.148;2023-10-09T07:06:35;16.20;99.90
52435;DHT22;38354;52.892;6.148;2023-10-09T07:09:01;16.10;99.90
52435;DHT22;38354;52.892;6.148;2023-10-09T07:14:17;16.20;99.90
52435;DHT22;38354;52.892;6.148;2023-10-09T07:16:57;16.20;99.90
52435;DHT22;38354;52.892;6.148;2023-10-09T07:19:24;16.20;99.90
52435;DHT22;38354;52.892;6.148;2023-10-09T07:22:08;16.20;99.90
52435;DHT22;38354;52.892;6.148;2023-10-09T07:24:49;16.20;99.90
52435;DHT22;38354;52.892;6.148;2023-10-09T07:30:10;16.20;99.90
52435;DHT22;38354;52.892;6.148;2023-10-09T07:33:06;16.20;99.90
52435;DHT22;38354;52.892;6.148;2023-10-09T07:35:41;16.20;99.90
52435;DHT22;38354;52.892;6.148;2023-10-09T07:40:36;16.20;99.90
52435;DHT22;38354;52.892;6.148;2023-10-09T07:43:21;16.30;99.90
52435;DHT22;38354;52.892;6.148;2023-10-09T07:45:54;16.30;99.90
52435;DHT22;38354;52.892;6.148;2023-10-09T07:48:20;16.30;99.90
52435;DHT22;38354;52.892;6.148;2023-10-09T07:50:51;16.30;99.90
52435;DHT22;38354;52.892;6.148;2023-10-09T07:53:22;16.30;99.90
52435;DHT22;38354;52.892;6.148;2023-10-09T07:55:54;16.40;99.90
52435;DHT22;38354;52.892;6.148;2023-10-09T07:58:24;16.40;99.90
52435;DHT22;38354;52.892;6.148;2023-10-09T08:00:53;16.40;99.90
52435;DHT22;38354;52.892;6.148;2023-10-09T08:03:48;16.40;99.90
52435;DHT22;38354;52.892;6.148;2023-10-09T08:06:23;16.40;99.90
52435;DHT22;38354;52.892;6.148;2023-10-09T08:09:04;16.40;99.90
52435;DHT22;38354;52.892;6.148;2023-10-09T08:11:39;16.50;99.90
52435;DHT22;38354;52.892;6.148;2023-10-09T08:14:13;16.50;99.90
52435;DHT22;38354;52.892;6.148;2023-10-09T08:16:58;16.50;99.90
52435;DHT22;38354;52.892;6.148;2023-10-09T08:19:45;16.50;99.90
52435;DHT22;38354;52.892;6.148;2023-10-09T08:22:24;16.50;99.90
52435;DHT22;38354;52.892;6.148;2023-10-09T08:24:50;16.60;99.90
52435;DHT22;38354;52.892;6.148;2023-10-09T08:29:56;16.50;99.90
52435;DHT22;38354;52.892;6.148;2023-10-09T08:32:40;16.50;99.90
52435;DHT22;38354;52.892;6.148;2023-10-09T08:35:11;16.50;99.90
52435;DHT22;38354;52.892;6.148;2023-10-09T08:37:58;16.50;99.90
52435;DHT22;38354;52.892;6.148;2023-10-09T08:40:31;16.50;99.90
52435;DHT22;38354;52.892;6.148;2023-10-09T08:43:09;16.50;99.90
52435;DHT22;38354;52.892;6.148;2023-10-09T08:45:39;16.50;99.90
52435;DHT22;38354;52.892;6.148;2023-10-09T08:48:08;16.50;99.90
52435;DHT22;38354;52.892;6.148;2023-10-09T08:50:35;16.50;99.90
52435;DHT22;38354;52.892;6.148;2023-10-09T08:53:00;16.50;99.90
52435;DHT22;38354;52.892;6.148;2023-10-09T08:55:28;16.60;99.90
52435;DHT22;38354;52.892;6.148;2023-10-09T08:57:54;16.60;99.90
52435;DHT22;38354;52.892;6.148;2023-10-09T09:00:23;16.60;99.90
52435;DHT22;38354;52.892;6.148;2023-10-09T09:02:55;16.60;99.90
52435;DHT22;38354;52.892;6.148;2023-10-09T09:05:20;16.60;99.90
52435;DHT22;38354;52.892;6.148;2023-10-09T09:07:46;16.60;99.90
52435;DHT22;38354;52.892;6.148;2023-10-09T09:10:13;16.60;99.90
52435;DHT22;38354;52.892;6.148;2023-10-09T09:12:48;16.60;99.90
52435;DHT22;38354;52.892;6.148;2023-10-09T09:15:28;16.70;99.90
52435;DHT22;38354;52.892;6.148;2023-10-09T09:18:07;16.70;99.90
52435;DHT22;38354;52.892;6.148;2023-10-09T09:20:34;16.70;99.90
52435;DHT22;38354;52.892;6.148;2023-10-09T09:23:02;16.70;99.90
52435;DHT22;38354;52.892;6.148;2023-10-09T09:25:47;16.70;99.90
52435;DHT22;38354;52.892;6.148;2023-10-09T09:28:15;16.70;99.90
52435;DHT22;38354;52.892;6.148;2023-10-09T09:30:47;16.70;99.90
52435;DHT22;38354;52.892;6.148;2023-10-09T09:33:22;16.70;99.90
52435;DHT22;38354;52.892;6.148;2023-10-09T09:36:08;16.80;99.90
52435;DHT22;38354;52.892;6.148;2023-10-09T09:38:36;16.70;99.90
52435;DHT22;38354;52.892;6.148;2023-10-09T09:41:15;16.80;99.90
52435;DHT22;38354;52.892;6.148;2023-10-09T09:43:51;16.80;99.90
52435;DHT22;38354;52.892;6.148;2023-10-09T09:46:17;16.80;99.90
52435;DHT22;38354;52.892;6.148;2023-10-09T09:48:43;16.90;99.90
52435;DHT22;38354;52.892;6.148;2023-10-09T09:51:11;16.90;99.90
52435;DHT22;38354;52.892;6.148;2023-10-09T09:53:39;17.00;99.90
52435;DHT22;38354;52.892;6.148;2023-10-09T09:56:05;17.00;99.90
52435;DHT22;38354;52.892;6.148;2023-10-09T09:58:31;17.10;99.90
52435;DHT22;38354;52.892;6.148;2023-10-09T10:01:08;17.10;99.90
52435;DHT22;38354;52.892;6.148;2023-10-09T10:03:42;17.20;99.90
52435;DHT22;38354;52.892;6.148;2023-10-09T10:06:09;17.20;99.90
52435;DHT22;38354;52.892;6.148;2023-10-09T10:08:37;17.20;99.90
52435;DHT22;38354;52.892;6.148;2023-10-09T10:11:05;17.20;99.90
52435;DHT22;38354;52.892;6.148;2023-10-09T10:14:13;17.20;99.90
52435;DHT22;38354;52.892;6.148;2023-10-09T10:16:21;17.20;99.90
52435;DHT22;38354;52.892;6.148;2023-10-09T10:21:22;17.30;99.90
52435;DHT22;38354;52.892;6.148;2023-10-09T10:23:57;17.30;99.90
52435;DHT22;38354;52.892;6.148;2023-10-09T10:26:35;17.30;99.90
52435;DHT22;38354;52.892;6.148;2023-10-09T10:29:34;17.40;99.90
52435;DHT22;38354;52.892;6.148;2023-10-09T10:32:00;17.40;99.90
52435;DHT22;38354;52.892;6.148;2023-10-09T10:34:26;17.40;99.90
52435;DHT22;38354;52.892;6.148;2023-10-09T10:37:15;17.40;99.90
52435;DHT22;38354;52.892;6.148;2023-10-09T10:39:58;17.40;99.90
52435;DHT22;38354;52.892;6.148;2023-10-09T10:42:48;17.50;99.90
52435;DHT22;38354;52.892;6.148;2023-10-09T10:45:34;17.50;99.90
52435;DHT22;38354;52.892;6.148;2023-10-09T10:48:01;17.50;99.90
52435;DHT22;38354;52.892;6.148;2023-10-09T10:50:32;17.50;99.90
52435;DHT22;38354;52.892;6.148;2023-10-09T10:56:00;17.60;99.90
52435;DHT22;38354;52.892;6.148;2023-10-09T10:58:42;17.70;99.90
52435;DHT22;38354;52.892;6.148;2023-10-09T11:01:31;17.80;99.90
52435;DHT22;38354;52.892;6.148;2023-10-09T11:04:19;17.70;99.90
52435;DHT22;38354;52.892;6.148;2023-10-09T11:06:56;17.70;99.90
52435;DHT22;38354;52.892;6.148;2023-10-09T11:09:49;17.70;99.90
52435;DHT22;38354;52.892;6.148;2023-10-09T11:15:10;18.00;99.90
52435;DHT22;38354;52.892;6.148;2023-10-09T11:18:04;18.20;99.90
52435;DHT22;38354;52.892;6.148;2023-10-09T11:20:37;18.40;99.90
52435;DHT22;38354;52.892;6.148;2023-10-09T11:23:19;18.70;99.90
52435;DHT22;38354;52.892;6.148;2023-10-09T11:25:55;18.70;99.90
52435;DHT22;38354;52.892;6.148;2023-10-09T11:28:33;18.70;99.90
52435;DHT22;38354;52.892;6.148;2023-10-09T11:31:17;18.70;99.90
52435;DHT22;38354;52.892;6.148;2023-10-09T11:33:52;18.60;99.90
52435;DHT22;38354;52.892;6.148;2023-10-09T11:36:20;18.60;99.90
52435;DHT22;38354;52.892;6.148;2023-10-09T11:38:56;18.50;99.90
52435;DHT22;38354;52.892;6.148;2023-10-09T11:41:42;18.50;99.90
52435;DHT22;38354;52.892;6.148;2023-10-09T11:44:07;18.40;99.90
52435;DHT22;38354;52.892;6.148;2023-10-09T11:46:59;18.30;99.90
52435;DHT22;38354;52.892;6.148;2023-10-09T11:49:48;18.30;99.90
52435;DHT22;38354;52.892;6.148;2023-10-09T11:52:22;18.30;99.90
52435;DHT22;38354;52.892;6.148;2023-10-09T11:55:21;18.20;99.90
52435;DHT22;38354;52.892;6.148;2023-10-09T11:57:53;18.20;99.90
52435;DHT22;38354;52.892;6.148;2023-10-09T12:00:19;18.10;99.90
52435;DHT22;38354;52.892;6.148;2023-10-09T12:03:07;18.10;99.90
52435;DHT22;38354;52.892;6.148;2023-10-09T12:05:32;18.10;99.90
52435;DHT22;38354;52.892;6.148;2023-10-09T12:07:59;18.10;99.90
52435;DHT22;38354;52.892;6.148;2023-10-09T12:10:26;18.10;99.90
52435;DHT22;38354;52.892;6.148;2023-10-09T12:12:52;18.10;99.90
52435;DHT22;38354;52.892;6.148;2023-10-09T12:15:18;18.10;99.90
52435;DHT22;38354;52.892;6.148;2023-10-09T12:17:45;18.00;99.90
52435;DHT22;38354;52.892;6.148;2023-10-09T12:20:16;18.00;99.90
52435;DHT22;38354;52.892;6.148;2023-10-09T12:23:00;17.90;99.90
52435;DHT22;38354;52.892;6.148;2023-10-09T12:25:26;17.90;99.90
52435;DHT22;38354;52.892;6.148;2023-10-09T12:27:53;17.90;99.90
52435;DHT22;38354;52.892;6.148;2023-10-09T12:30:23;17.90;99.90
52435;DHT22;38354;52.892;6.148;2023-10-09T12:32:52;17.90;99.90
52435;DHT22;38354;52.892;6.148;2023-10-09T12:35:18;17.90;99.90
52435;DHT22;38354;52.892;6.148;2023-10-09T12:37:44;17.90;99.90
52435;DHT22;38354;52.892;6.148;2023-10-09T12:40:10;17.90;99.90
52435;DHT22;38354;52.892;6.148;2023-10-09T12:42:36;18.00;99.90
52435;DHT22;38354;52.892;6.148;2023-10-09T12:45:05;18.00;99.90
52435;DHT22;38354;52.892;6.148;2023-10-09T12:47:35;18.10;99.90
52435;DHT22;38354;52.892;6.148;2023-10-09T12:50:06;18.20;99.90
52435;DHT22;38354;52.892;6.148;2023-10-09T12:52:38;18.30;99.90
52435;DHT22;38354;52.892;6.148;2023-10-09T12:55:04;18.30;99.90
52435;DHT22;38354;52.892;6.148;2023-10-09T12:57:34;18.30;99.90
52435;DHT22;38354;52.892;6.148;2023-10-09T12:59:59;18.30;99.90
52435;DHT22;38354;52.892;6.148;2023-10-09T13:02:25;18.30;99.90
52435;DHT22;38354;52.892;6.148;2023-10-09T13:04:57;18.40;99.90
52435;DHT22;38354;52.892;6.148;2023-10-09T13:07:22;18.40;99.90
52435;DHT22;38354;52.892;6.148;2023-10-09T13:09:48;18.50;99.90
52435;DHT22;38354;52.892;6.148;2023-10-09T13:12:32;18.40;99.90
52435;DHT22;38354;52.892;6.148;2023-10-09T13:14:58;18.30;99.90
52435;DHT22;38354;52.892;6.148;2023-10-09T13:17:24;18.30;99.90
52435;DHT22;38354;52.892;6.148;2023-10-09T13:19:52;18.30;99.90
52435;DHT22;38354;52.892;6.148;2023-10-09T13:22:18;18.30;99.90
52435;DHT22;38354;52.892;6.148;2023-10-09T13:24:44;18.30;99.90
52435;DHT22;38354;52.892;6.148;2023-10-09T13:27:13;18.20;99.90
52435;DHT22;38354;52.892;6.148;2023-10-09T13:29:46;18.20;99.90
52435;DHT22;38354;52.892;6.148;2023-10-09T13:32:13;18.10;99.90
52435;DHT22;38354;52.892;6.148;2023-10-09T13:34:40;18.10;99.90
52435;DHT22;38354;52.892;6.148;2023-10-09T13:37:10;18.10;99.90
52435;DHT22;38354;52.892;6.148;2023-10-09T13:39:39;18.00;99.90
52435;DHT22;38354;52.892;6.148;2023-10-09T13:42:17;18.00;99.90
52435;DHT22;38354;52.892;6.148;2023-10-09T13:44:43;18.10;99.90
52435;DHT22;38354;52.892;6.148;2023-10-09T13:47:09;18.30;99.90
52435;DHT22;38354;52.892;6.148;2023-10-09T13:49:44;18.30;99.90
52435;DHT22;38354;52.892;6.148;2023-10-09T13:52:10;18.30;99.90
52435;DHT22;38354;52.892;6.148;2023-10-09T13:54:35;18.40;99.90
52435;DHT22;38354;52.892;6.148;2023-10-09T13:57:02;18.30;99.90
52435;DHT22;38354;52.892;6.148;2023-10-09T13:59:31;18.30;99.90
52435;DHT22;38354;52.892;6.148;2023-10-09T14:01:57;18.30;99.90
52435;DHT22;38354;52.892;6.148;2023-10-09T14:04:24;18.30;99.90
52435;DHT22;38354;52.892;6.148;2023-10-09T14:06:50;18.30;99.90
52435;DHT22;38354;52.892;6.148;2023-10-09T14:09:22;18.20;99.90
52435;DHT22;38354;52.892;6.148;2023-10-09T14:11:58;18.20;99.90
52435;DHT22;38354;52.892;6.148;2023-10-09T14:14:40;18.20;99.90
52435;DHT22;38354;52.892;6.148;2023-10-09T14:17:15;18.10;99.90
52435;DHT22;38354;52.892;6.148;2023-10-09T14:19:47;18.00;99.90
52435;DHT22;38354;52.892;6.148;2023-10-09T14:22:13;18.00;99.90
52435;DHT22;38354;52.892;6.148;2023-10-09T14:24:41;18.00;99.90
52435;DHT22;38354;52.892;6.148;2023-10-09T14:27:13;17.90;99.90
52435;DHT22;38354;52.892;6.148;2023-10-09T14:29:45;17.80;99.90
52435;DHT22;38354;52.892;6.148;2023-10-09T14:32:11;17.80;99.90
52435;DHT22;38354;52.892;6.148;2023-10-09T14:34:43;17.70;99.90
52435;DHT22;38354;52.892;6.148;2023-10-09T14:37:12;17.70;99.90
52435;DHT22;38354;52.892;6.148;2023-10-09T14:39:43;17.60;99.90
52435;DHT22;38354;52.892;6.148;2023-10-09T14:42:16;17.60;99.90
52435;DHT22;38354;52.892;6.148;2023-10-09T14:44:42;17.50;99.90
52435;DHT22;38354;52.892;6.148;2023-10-09T14:47:10;17.50;99.90
52435;DHT22;38354;52.892;6.148;2023-10-09T14:49:36;17.50;99.90
52435;DHT22;38354;52.892;6.148;2023-10-09T14:52:15;17.50;99.90
52435;DHT22;38354;52.892;6.148;2023-10-09T14:54:45;17.50;99.90
52435;DHT22;38354;52.892;6.148;2023-10-09T14:57:11;17.50;99.90
52435;DHT22;38354;52.892;6.148;2023-10-09T14:59:37;17.60;99.90
52435;DHT22;38354;52.892;6.148;2023-10-09T15:02:03;17.50;99.90
52435;DHT22;38354;52.892;6.148;2023-10-09T15:04:30;17.60;99.90
52435;DHT22;38354;52.892;6.148;2023-10-09T15:06:56;17.60;99.90
52435;DHT22;38354;52.892;6.148;2023-10-09T15:09:22;17.60;99.90
52435;DHT22;38354;52.892;6.148;2023-10-09T15:11:48;17.50;99.90
52435;DHT22;38354;52.892;6.148;2023-10-09T15:14:14;17.50;99.90
52435;DHT22;38354;52.892;6.148;2023-10-09T15:16:40;17.50;99.90
52435;DHT22;38354;52.892;6.148;2023-10-09T15:19:08;17.50;99.90
52435;DHT22;38354;52.892;6.148;2023-10-09T15:21:35;17.50;99.90
52435;DHT22;38354;52.892;6.148;2023-10-09T15:24:01;17.40;99.90
52435;DHT22;38354;52.892;6.148;2023-10-09T15:26:26;17.40;99.90
52435;DHT22;38354;52.892;6.148;2023-10-09T15:28:59;17.40;99.90
52435;DHT22;38354;52.892;6.148;2023-10-09T15:31:25;17.30;99.90
52435;DHT22;38354;52.892;6.148;2023-10-09T15:33:51;17.30;99.90
52435;DHT22;38354;52.892;6.148;2023-10-09T15:36:17;17.30;99.90
52435;DHT22;38354;52.892;6.148;2023-10-09T15:38:46;17.20;99.90
52435;DHT22;38354;52.892;6.148;2023-10-09T15:41:11;17.20;99.90
52435;DHT22;38354;52.892;6.148;2023-10-09T15:43:40;17.20;99.90
52435;DHT22;38354;52.892;6.148;2023-10-09T15:46:13;17.20;99.90
52435;DHT22;38354;52.892;6.148;2023-10-09T15:48:42;17.20;99.90
52435;DHT22;38354;52.892;6.148;2023-10-09T15:51:14;17.20;99.90
52435;DHT22;38354;52.892;6.148;2023-10-09T15:53:43;17.10;99.90
52435;DHT22;38354;52.892;6.148;2023-10-09T15:56:09;17.10;99.90
52435;DHT22;38354;52.892;6.148;2023-10-09T15:58:40;17.10;99.90
52435;DHT22;38354;52.892;6.148;2023-10-09T16:01:11;17.10;99.90
52435;DHT22;38354;52.892;6.148;2023-10-09T16:03:39;17.10;99.90
52435;DHT22;38354;52.892;6.148;2023-10-09T16:06:05;17.00;99.90
52435;DHT22;38354;52.892;6.148;2023-10-09T16:08:33;17.00;99.90
52435;DHT22;38354;52.892;6.148;2023-10-09T16:11:03;17.00;99.90
52435;DHT22;38354;52.892;6.148;2023-10-09T16:13:29;17.00;99.90
52435;DHT22;38354;52.892;6.148;2023-10-09T16:15:54;17.00;99.90
52435;DHT22;38354;52.892;6.148;2023-10-09T16:18:25;17.00;99.90
52435;DHT22;38354;52.892;6.148;2023-10-09T16:20:55;17.00;99.90
52435;DHT22;38354;52.892;6.148;2023-10-09T16:23:21;16.90;99.90
52435;DHT22;38354;52.892;6.148;2023-10-09T16:25:47;17.00;99.90
52435;DHT22;38354;52.892;6.148;2023-10-09T16:28:14;16.90;99.90
52435;DHT22;38354;52.892;6.148;2023-10-09T16:30:41;16.90;99.90
52435;DHT22;38354;52.892;6.148;2023-10-09T16:33:08;16.90;99.90
52435;DHT22;38354;52.892;6.148;2023-10-09T16:35:34;16.90;99.90
52435;DHT22;38354;52.892;6.148;2023-10-09T16:38:03;16.90;99.90
52435;DHT22;38354;52.892;6.148;2023-10-09T16:40:33;16.80;99.90
52435;DHT22;38354;52.892;6.148;2023-10-09T16:43:00;16.80;99.90
52435;DHT22;38354;52.892;6.148;2023-10-09T16:45:26;16.80;99.90
52435;DHT22;38354;52.892;6.148;2023-10-09T16:47:52;16.70;99.90
52435;DHT22;38354;52.892;6.148;2023-10-09T16:50:20;16.70;99.90
52435;DHT22;38354;52.892;6.148;2023-10-09T16:52:51;16.70;99.90
52435;DHT22;38354;52.892;6.148;2023-10-09T16:55:17;16.70;99.90
52435;DHT22;38354;52.892;6.148;2023-10-09T16:57:44;16.70;99.90
52435;DHT22;38354;52.892;6.148;2023-10-09T17:00:15;16.60;99.90
52435;DHT22;38354;52.892;6.148;2023-10-09T17:02:56;16.60;99.90
52435;DHT22;38354;52.892;6.148;2023-10-09T17:05:22;16.60;99.90
52435;DHT22;38354;52.892;6.148;2023-10-09T17:07:58;16.60;99.90
52435;DHT22;38354;52.892;6.148;2023-10-09T17:10:24;16.60;99.90
52435;DHT22;38354;52.892;6.148;2023-10-09T17:13:00;16.60;99.90
52435;DHT22;38354;52.892;6.148;2023-10-09T17:15:26;16.60;99.90
52435;DHT22;38354;52.892;6.148;2023-10-09T17:17:58;16.50;99.90
52435;DHT22;38354;52.892;6.148;2023-10-09T17:20:25;16.50;99.90
52435;DHT22;38354;52.892;6.148;2023-10-09T17:22:52;16.50;99.90
52435;DHT22;38354;52.892;6.148;2023-10-09T17:25:18;16.50;99.90
52435;DHT22;38354;52.892;6.148;2023-10-09T17:27:43;16.50;99.90
52435;DHT22;38354;52.892;6.148;2023-10-09T17:30:10;16.50;99.90
52435;DHT22;38354;52.892;6.148;2023-10-09T17:32:36;16.50;99.90
52435;DHT22;38354;52.892;6.148;2023-10-09T17:35:05;16.50;99.90
52435;DHT22;38354;52.892;6.148;2023-10-09T17:37:35;16.40;99.90
52435;DHT22;38354;52.892;6.148;2023-10-09T17:40:01;16.40;99.90
52435;DHT22;38354;52.892;6.148;2023-10-09T17:42:27;16.40;99.90
52435;DHT22;38354;52.892;6.148;2023-10-09T17:44:53;16.40;99.90
52435;DHT22;38354;52.892;6.148;2023-10-09T17:47:20;16.40;99.90
52435;DHT22;38354;52.892;6.148;2023-10-09T17:49:47;16.40;99.90
52435;DHT22;38354;52.892;6.148;2023-10-09T17:52:12;16.40;99.90
52435;DHT22;38354;52.892;6.148;2023-10-09T17:54:38;16.40;99.90
52435;DHT22;38354;52.892;6.148;2023-10-09T17:57:04;16.40;99.90
52435;DHT22;38354;52.892;6.148;2023-10-09T17:59:30;16.40;99.90
52435;DHT22;38354;52.892;6.148;2023-10-09T18:01:56;16.40;99.90
52435;DHT22;38354;52.892;6.148;2023-10-09T18:04:22;16.40;99.90
52435;DHT22;38354;52.892;6.148;2023-10-09T18:06:49;16.40;99.90
52435;DHT22;38354;52.892;6.148;2023-10-09T18:09:21;16.40;99.90
52435;DHT22;38354;52.892;6.148;2023-10-09T18:11:47;16.30;99.90
52435;DHT22;38354;52.892;6.148;2023-10-09T18:14:20;16.30;99.90
52435;DHT22;38354;52.892;6.148;2023-10-09T18:16:48;16.30;99.90
52435;DHT22;38354;52.892;6.148;2023-10-09T18:19:14;16.30;99.90
52435;DHT22;38354;52.892;6.148;2023-10-09T18:21:40;16.30;99.90
52435;DHT22;38354;52.892;6.148;2023-10-09T18:24:08;16.30;99.90
52435;DHT22;38354;52.892;6.148;2023-10-09T18:26:42;16.30;99.90
52435;DHT22;38354;52.892;6.148;2023-10-09T18:29:10;16.30;99.90
52435;DHT22;38354;52.892;6.148;2023-10-09T18:31:37;16.30;99.90
52435;DHT22;38354;52.892;6.148;2023-10-09T18:34:03;16.30;99.90
52435;DHT22;38354;52.892;6.148;2023-10-09T18:36:33;16.20;99.90
52435;DHT22;38354;52.892;6.148;2023-10-09T18:38:58;16.20;99.90
52435;DHT22;38354;52.892;6.148;2023-10-09T18:41:24;16.20;99.90
52435;DHT22;38354;52.892;6.148;2023-10-09T18:43:50;16.20;99.90
52435;DHT22;38354;52.892;6.148;2023-10-09T18:46:17;16.20;99.90
52435;DHT22;38354;52.892;6.148;2023-10-09T18:48:43;16.20;99.90
52435;DHT22;38354;52.892;6.148;2023-10-09T18:51:14;16.20;99.90
52435;DHT22;38354;52.892;6.148;2023-10-09T18:53:43;16.20;99.90
52435;DHT22;38354;52.892;6.148;2023-10-09T18:56:15;16.10;99.90
52435;DHT22;38354;52.892;6.148;2023-10-09T18:58:41;16.10;99.90
52435;DHT22;38354;52.892;6.148;2023-10-09T19:01:06;16.10;99.90
52435;DHT22;38354;52.892;6.148;2023-10-09T19:03:38;16.10;99.90
52435;DHT22;38354;52.892;6.148;2023-10-09T19:06:05;16.10;99.90
52435;DHT22;38354;52.892;6.148;2023-10-09T19:08:34;16.10;99.90
52435;DHT22;38354;52.892;6.148;2023-10-09T19:11:00;16.10;99.90
52435;DHT22;38354;52.892;6.148;2023-10-09T19:13:25;16.10;99.90
52435;DHT22;38354;52.892;6.148;2023-10-09T19:15:51;16.00;99.90
52435;DHT22;38354;52.892;6.148;2023-10-09T19:18:17;16.00;99.90
52435;DHT22;38354;52.892;6.148;2023-10-09T19:20:44;16.00;99.90
52435;DHT22;38354;52.892;6.148;2023-10-09T19:23:15;16.10;99.90
52435;DHT22;38354;52.892;6.148;2023-10-09T19:25:41;16.00;99.90